Time;durP1;ratioP1;P1;durP2;ratioP2;P2;SDS_P1;SDS_P2;PMS_P1;PMS_P2;Temp;Humidity;BMP_temperature;BMP_pressure;BME280_temperature;BME280_humidity;BME280_pressure;Samples;Min_cycle;Max_cycle;Signal;HPM_P1;HPM_P2
2023/03/26 00:01:57;;;;;;;6.57;1.25;;;22.80;99.90;;;;;;5076003;28;20193;-79
2023/03/26 00:04:28;;;;;;;2.90;0.75;;;22.80;99.90;;;;;;5062631;28;20204;-78
2023/03/26 00:06:59;;;;;;;3.92;0.60;;;22.80;99.90;;;;;;5068221;28;20288;-77
2023/03/26 00:09:30;;;;;;;2.88;0.70;;;22.80;99.90;;;;;;5065228;28;20193;-78
2023/03/26 00:12:03;;;;;;;6.30;0.90;;;22.90;99.90;;;;;;5056338;28;20263;-77
2023/03/26 00:14:35;;;;;;;4.95;0.70;;;22.90;99.90;;;;;;5060471;28;20200;-77
2023/03/26 00:17:07;;;;;;;12.23;8.85;;;23.00;99.90;;;;;;5075950;28;20196;-78
2023/03/26 00:19:39;;;;;;;3.35;0.85;;;23.00;99.90;;;;;;5072930;28;20205;-78
2023/03/26 00:22:10;;;;;;;1.38;0.55;;;23.10;99.90;;;;;;5060119;28;20193;-78
2023/03/26 00:24:44;;;;;;;3.00;0.57;;;23.20;99.90;;;;;;5062300;28;20197;-77
2023/03/26 00:27:17;;;;;;;2.13;0.60;;;23.50;99.90;;;;;;5068558;28;20655;-78
2023/03/26 00:29:49;;;;;;;3.00;0.47;;;24.00;99.90;;;;;;5062413;28;20194;-78
2023/03/26 00:32:20;;;;;;;4.68;0.60;;;24.30;99.90;;;;;;5064594;28;20237;-78
2023/03/26 00:34:51;;;;;;;2.38;0.43;;;24.50;99.90;;;;;;5055698;28;20186;-79
2023/03/26 00:37:25;;;;;;;1.55;0.60;;;24.60;99.90;;;;;;5055640;28;20186;-77
2023/03/26 00:39:58;;;;;;;1.75;0.38;;;24.60;99.90;;;;;;5055407;28;20237;-78
2023/03/26 00:42:34;;;;;;;3.53;0.70;;;24.50;99.90;;;;;;5062484;28;20276;-79
2023/03/26 00:45:05;;;;;;;4.38;0.75;;;24.50;99.90;;;;;;5064510;28;20254;-78
2023/03/26 00:47:36;;;;;;;3.33;0.60;;;24.40;99.90;;;;;;5074565;28;20189;-77
2023/03/26 00:50:14;;;;;;;4.82;0.60;;;24.40;99.90;;;;;;5075531;28;20197;-77
2023/03/26 00:52:45;;;;;;;3.42;0.50;;;24.40;99.90;;;;;;5074816;28;20217;-79
2023/03/26 00:55:17;;;;;;;1.95;0.40;;;24.40;99.90;;;;;;5075210;28;20573;-78
2023/03/26 00:57:50;;;;;;;1.92;0.30;;;24.30;99.90;;;;;;5075137;28;20189;-78
2023/03/26 01:00:30;;;;;;;2.80;0.50;;;24.30;99.90;;;;;;5075114;28;20193;-81
2023/03/26 01:03:01;;;;;;;1.60;0.50;;;24.30;99.90;;;;;;5063349;28;20201;-80
2023/03/26 01:05:51;;;;;;;2.97;0.50;;;24.40;99.90;;;;;;5075168;28;20185;-83
2023/03/26 01:08:31;;;;;;;2.88;0.50;;;24.50;99.90;;;;;;5074959;28;20189;-79
2023/03/26 01:11:12;;;;;;;2.13;0.38;;;24.60;99.90;;;;;;5061859;28;20190;-80
2023/03/26 01:13:49;;;;;;;1.85;0.40;;;24.80;99.90;;;;;;5064747;28;20244;-81
2023/03/26 01:16:27;;;;;;;3.92;0.50;;;24.90;99.90;;;;;;5053948;28;20193;-81
2023/03/26 01:18:59;;;;;;;3.25;0.40;;;25.00;99.90;;;;;;5055638;28;20197;-77
2023/03/26 01:21:33;;;;;;;3.33;0.60;;;25.10;99.90;;;;;;5071956;28;20250;-78
2023/03/26 01:24:07;;;;;;;4.57;0.47;;;25.20;99.90;;;;;;5071404;28;20193;-78
2023/03/26 01:26:56;;;;;;;3.40;0.50;;;25.30;99.90;;;;;;5074097;28;20297;-78
2023/03/26 01:29:36;;;;;;;2.92;0.50;;;25.50;99.90;;;;;;5074262;28;20247;-80
2023/03/26 01:32:23;;;;;;;4.43;0.60;;;25.60;99.90;;;;;;5074334;28;20193;-84
2023/03/26 01:35:14;;;;;;;1.65;0.52;;;25.90;99.90;;;;;;5074394;28;20196;-83
2023/03/26 01:37:57;;;;;;;2.15;0.40;;;25.80;99.90;;;;;;5056395;28;20205;-78
2023/03/26 01:40:41;;;;;;;3.08;0.45;;;25.60;99.90;;;;;;5054221;28;20315;-79
2023/03/26 01:43:18;;;;;;;4.43;0.63;;;25.40;99.90;;;;;;5053307;28;20197;-82
2023/03/26 01:45:52;;;;;;;2.80;0.60;;;25.20;99.90;;;;;;5058996;28;20192;-80
2023/03/26 01:48:30;;;;;;;4.63;0.55;;;25.20;99.90;;;;;;5060547;28;20193;-80
2023/03/26 01:51:01;;;;;;;3.17;0.45;;;25.00;99.90;;;;;;5054128;28;20314;-79
2023/03/26 01:53:33;;;;;;;3.70;0.60;;;24.90;99.90;;;;;;5061193;28;20221;-79
2023/03/26 01:56:14;;;;;;;3.63;0.70;;;24.90;99.90;;;;;;5056834;28;20202;-81
2023/03/26 01:58:57;;;;;;;2.92;0.43;;;24.80;99.90;;;;;;5054068;28;20193;-79
2023/03/26 02:01:31;;;;;;;3.45;0.60;;;24.80;99.90;;;;;;5057508;28;20247;-80
2023/03/26 02:04:09;;;;;;;5.07;0.60;;;24.80;99.90;;;;;;5061259;28;20209;-80
2023/03/26 02:06:46;;;;;;;2.25;0.50;;;24.80;99.90;;;;;;5062761;28;20201;-79
2023/03/26 02:09:22;;;;;;;3.55;0.68;;;24.90;99.90;;;;;;5062412;28;20196;-79
2023/03/26 02:11:56;;;;;;;3.30;0.57;;;24.90;99.90;;;;;;5053912;28;20205;-78
2023/03/26 02:14:30;;;;;;;2.28;0.60;;;24.80;99.90;;;;;;5054540;28;20212;-77
2023/03/26 02:17:01;;;;;;;4.40;0.40;;;24.80;99.90;;;;;;5062096;28;20186;-78
2023/03/26 02:19:32;;;;;;;3.92;0.70;;;24.70;99.90;;;;;;5060419;28;20212;-81
2023/03/26 02:22:03;;;;;;;5.78;0.70;;;24.60;99.90;;;;;;5056301;28;20197;-79
2023/03/26 02:24:34;;;;;;;3.50;0.77;;;24.60;99.90;;;;;;5056787;28;20592;-77
2023/03/26 02:27:08;;;;;;;1.73;0.40;;;24.60;99.90;;;;;;5056209;28;20672;-77
2023/03/26 02:29:41;;;;;;;6.38;0.50;;;24.60;99.90;;;;;;5057303;28;20193;-77
2023/03/26 02:32:13;;;;;;;2.75;0.50;;;24.60;99.90;;;;;;5063356;28;20210;-77
2023/03/26 02:34:44;;;;;;;3.55;0.70;;;24.70;99.90;;;;;;5061825;28;20217;-79
2023/03/26 02:37:17;;;;;;;4.05;0.70;;;24.60;99.90;;;;;;5058545;28;20196;-80
2023/03/26 02:39:48;;;;;;;1.90;0.43;;;24.70;99.90;;;;;;5053971;28;20316;-81
2023/03/26 02:42:21;;;;;;;2.30;0.40;;;24.70;99.90;;;;;;5056918;28;20198;-81
2023/03/26 02:44:53;;;;;;;2.80;0.60;;;24.60;99.90;;;;;;5059972;28;20215;-82
2023/03/26 02:47:24;;;;;;;3.00;0.50;;;24.70;99.90;;;;;;5053002;28;20571;-79
2023/03/26 02:49:55;;;;;;;3.85;0.60;;;24.60;99.90;;;;;;5063929;28;20216;-77
2023/03/26 02:52:26;;;;;;;5.13;1.08;;;24.70;99.90;;;;;;5058434;28;20221;-78
2023/03/26 02:54:57;;;;;;;2.95;0.50;;;24.80;99.90;;;;;;5062207;28;20219;-80
2023/03/26 02:57:30;;;;;;;3.38;0.47;;;24.80;99.90;;;;;;5073170;28;20189;-79
2023/03/26 03:00:03;;;;;;;2.97;0.60;;;24.80;99.90;;;;;;5072803;28;20664;-80
2023/03/26 03:02:36;;;;;;;3.40;1.20;;;24.80;99.90;;;;;;5063108;28;20587;-81
2023/03/26 03:05:08;;;;;;;3.70;0.70;;;24.60;99.90;;;;;;5052355;28;20244;-77
2023/03/26 03:07:39;;;;;;;3.90;0.60;;;24.60;99.90;;;;;;5056501;28;20200;-79
2023/03/26 03:10:12;;;;;;;2.95;0.50;;;24.50;99.90;;;;;;5055768;28;20209;-81
2023/03/26 03:12:45;;;;;;;3.60;0.60;;;24.60;99.90;;;;;;5060791;28;20629;-78
2023/03/26 03:15:17;;;;;;;4.40;0.70;;;24.50;99.90;;;;;;5057776;28;20309;-81
2023/03/26 03:17:48;;;;;;;3.53;0.60;;;24.60;99.90;;;;;;5054102;28;20196;-81
2023/03/26 03:20:20;;;;;;;4.43;0.90;;;24.60;99.90;;;;;;5055457;28;20545;-78
2023/03/26 03:22:51;;;;;;;4.15;0.60;;;24.70;99.90;;;;;;5052635;28;20285;-82
2023/03/26 03:25:24;;;;;;;4.03;0.80;;;24.80;99.90;;;;;;5054935;28;20217;-78
2023/03/26 03:27:57;;;;;;;3.33;0.85;;;24.90;99.90;;;;;;5072003;28;20201;-79
2023/03/26 03:30:28;;;;;;;2.90;0.47;;;24.80;99.90;;;;;;5064001;28;20200;-77
2023/03/26 03:33:01;;;;;;;1.80;0.60;;;24.90;99.90;;;;;;5055105;28;20222;-78
2023/03/26 03:35:32;;;;;;;4.85;0.77;;;24.80;99.90;;;;;;5063536;28;20197;-83
2023/03/26 03:38:03;;;;;;;4.65;0.70;;;24.60;99.90;;;;;;5064132;28;20197;-79
2023/03/26 03:40:34;;;;;;;3.33;0.85;;;24.50;99.90;;;;;;5055680;28;20229;-80
2023/03/26 03:43:07;;;;;;;2.85;0.68;;;24.40;99.90;;;;;;5064697;28;20201;-80
2023/03/26 03:45:38;;;;;;;1.63;0.50;;;24.30;99.90;;;;;;5062349;28;20201;-80
2023/03/26 03:48:09;;;;;;;3.40;0.80;;;24.20;99.90;;;;;;5060546;28;20198;-80
2023/03/26 03:50:42;;;;;;;4.90;0.77;;;24.10;99.90;;;;;;5057780;28;20189;-80
2023/03/26 03:53:15;;;;;;;4.45;0.73;;;24.10;99.90;;;;;;5067831;28;20209;-82
2023/03/26 03:55:51;;;;;;;4.97;0.80;;;24.10;99.90;;;;;;5059728;28;20204;-81
2023/03/26 03:58:29;;;;;;;5.07;0.60;;;24.00;99.90;;;;;;5076293;28;20636;-80
2023/03/26 04:01:01;;;;;;;5.35;1.05;;;24.00;99.90;;;;;;5074607;28;20560;-83
2023/03/26 04:03:37;;;;;;;7.20;1.13;;;24.00;99.90;;;;;;5076220;28;20645;-81
2023/03/26 04:06:09;;;;;;;5.50;0.80;;;24.00;99.90;;;;;;5073712;28;20270;-80
2023/03/26 04:08:41;;;;;;;5.93;0.82;;;24.00;99.90;;;;;;5057930;28;20197;-86
2023/03/26 04:11:12;;;;;;;3.75;0.65;;;24.00;99.90;;;;;;5067977;28;20208;-80
2023/03/26 04:13:45;;;;;;;3.10;0.50;;;24.00;99.90;;;;;;5054354;28;20220;-80
2023/03/26 04:16:17;;;;;;;5.28;0.57;;;23.90;99.90;;;;;;5056988;28;20213;-80
2023/03/26 04:18:48;;;;;;;3.40;0.80;;;24.00;99.90;;;;;;5064897;28;20193;-79
2023/03/26 04:21:19;;;;;;;3.13;0.50;;;23.90;99.90;;;;;;5074630;28;20200;-80
2023/03/26 04:23:50;;;;;;;5.38;0.80;;;24.00;99.90;;;;;;5059580;28;20189;-80
2023/03/26 04:26:21;;;;;;;6.18;0.90;;;24.00;99.90;;;;;;5058760;28;20193;-80
2023/03/26 04:28:56;;;;;;;4.03;0.82;;;24.00;99.90;;;;;;5055851;28;20185;-79
2023/03/26 04:31:30;;;;;;;3.65;0.80;;;24.00;99.90;;;;;;5062327;28;20207;-81
2023/03/26 04:34:12;;;;;;;5.30;0.80;;;24.00;99.90;;;;;;5075632;28;20622;-81
2023/03/26 04:36:45;;;;;;;4.50;0.85;;;24.00;99.90;;;;;;5064730;28;20255;-81
2023/03/26 04:39:16;;;;;;;6.72;0.80;;;24.00;99.90;;;;;;5061535;28;20232;-80
2023/03/26 04:41:47;;;;;;;6.75;0.90;;;23.90;99.90;;;;;;5055430;28;20218;-80
2023/03/26 04:44:21;;;;;;;5.07;0.75;;;23.90;99.90;;;;;;5055534;28;20193;-79
2023/03/26 04:46:54;;;;;;;5.63;0.90;;;23.80;99.90;;;;;;5058671;28;20199;-80
2023/03/26 04:49:25;;;;;;;4.57;0.60;;;23.70;99.90;;;;;;5065001;28;20193;-80
2023/03/26 04:51:56;;;;;;;6.38;0.95;;;23.70;99.90;;;;;;5066715;28;20193;-79
2023/03/26 04:54:27;;;;;;;7.00;0.80;;;23.70;99.90;;;;;;5055991;28;20218;-79
2023/03/26 04:57:01;;;;;;;6.60;0.80;;;23.60;99.90;;;;;;5055550;28;20196;-79
2023/03/26 04:59:36;;;;;;;4.47;0.90;;;23.60;99.90;;;;;;5073136;28;20204;-81
2023/03/26 05:02:08;;;;;;;4.63;1.00;;;23.60;99.90;;;;;;5057162;28;20262;-79
2023/03/26 05:04:42;;;;;;;2.38;0.63;;;23.50;99.90;;;;;;5058511;28;20238;-80
2023/03/26 05:07:18;;;;;;;5.57;0.65;;;23.50;99.90;;;;;;5060845;28;20247;-79
2023/03/26 05:09:49;;;;;;;6.22;0.82;;;23.50;99.90;;;;;;5061815;28;20201;-82
2023/03/26 05:12:20;;;;;;;5.75;0.82;;;23.50;99.90;;;;;;5055297;28;20196;-80
2023/03/26 05:14:53;;;;;;;6.28;0.82;;;23.50;99.90;;;;;;5055199;28;20226;-80
2023/03/26 05:17:29;;;;;;;6.15;0.75;;;23.40;99.90;;;;;;5055134;28;20194;-80
2023/03/26 05:20:00;;;;;;;4.78;0.65;;;23.50;99.90;;;;;;5054316;28;20197;-80
2023/03/26 05:22:31;;;;;;;3.92;0.80;;;23.50;99.90;;;;;;5057404;28;20200;-81
2023/03/26 05:25:02;;;;;;;3.92;0.60;;;23.50;99.90;;;;;;5064768;28;20231;-79
2023/03/26 05:27:34;;;;;;;4.93;0.90;;;23.50;99.90;;;;;;5068239;28;20197;-80
2023/03/26 05:30:10;;;;;;;4.32;0.80;;;23.50;99.90;;;;;;5074613;28;20189;-80
2023/03/26 05:32:41;;;;;;;5.13;0.75;;;23.60;99.90;;;;;;5066586;28;20192;-80
2023/03/26 05:35:14;;;;;;;2.60;0.50;;;23.60;99.90;;;;;;5053817;28;20222;-79
2023/03/26 05:37:46;;;;;;;5.45;0.88;;;23.60;99.90;;;;;;5064183;28;20193;-79
2023/03/26 05:40:17;;;;;;;5.85;0.98;;;23.60;99.90;;;;;;5073041;28;20233;-80
2023/03/26 05:42:50;;;;;;;3.28;0.60;;;23.60;99.90;;;;;;5071438;28;20230;-80
2023/03/26 05:45:23;;;;;;;3.28;0.80;;;23.60;99.90;;;;;;5065617;28;20684;-80
2023/03/26 05:47:55;;;;;;;4.75;0.90;;;23.60;99.90;;;;;;5055425;28;20205;-79
2023/03/26 05:50:26;;;;;;;4.05;1.05;;;23.60;99.90;;;;;;5074242;28;20199;-80
2023/03/26 05:52:57;;;;;;;4.43;0.98;;;23.60;99.90;;;;;;5068147;28;20196;-81
2023/03/26 05:55:28;;;;;;;3.72;0.70;;;23.50;99.90;;;;;;5054185;28;20232;-80
2023/03/26 05:57:59;;;;;;;3.03;0.52;;;23.50;99.90;;;;;;5054458;28;20197;-80
2023/03/26 06:00:32;;;;;;;4.15;0.77;;;23.50;99.90;;;;;;5053798;28;20193;-82
2023/03/26 06:03:03;;;;;;;5.35;1.02;;;23.60;99.90;;;;;;5056476;28;20194;-80
2023/03/26 06:05:36;;;;;;;3.85;0.70;;;23.60;99.90;;;;;;5054083;28;20665;-79
2023/03/26 06:08:08;;;;;;;4.18;0.82;;;23.60;99.90;;;;;;5056595;28;20315;-84
2023/03/26 06:10:42;;;;;;;3.97;0.85;;;23.60;99.90;;;;;;5056266;28;20209;-80
2023/03/26 06:13:15;;;;;;;3.25;0.68;;;23.60;99.90;;;;;;5052887;28;20609;-79
2023/03/26 06:15:48;;;;;;;5.82;0.90;;;23.60;99.90;;;;;;5057466;28;20270;-85
2023/03/26 06:18:19;;;;;;;3.58;0.77;;;23.60;99.90;;;;;;5056832;28;20200;-80
2023/03/26 06:20:50;;;;;;;4.03;0.60;;;23.60;99.90;;;;;;5061526;28;20191;-84
2023/03/26 06:23:22;;;;;;;4.50;0.82;;;23.60;99.90;;;;;;5073467;28;20192;-79
2023/03/26 06:25:53;;;;;;;2.47;0.50;;;23.50;99.90;;;;;;5056836;28;20194;-79
2023/03/26 06:28:24;;;;;;;7.38;0.68;;;23.50;99.90;;;;;;5068129;28;20201;-79
2023/03/26 06:31:00;;;;;;;4.68;0.60;;;23.40;99.90;;;;;;5068208;28;20196;-79
2023/03/26 06:33:31;;;;;;;4.50;0.70;;;23.40;99.90;;;;;;5062460;28;20203;-78
2023/03/26 06:36:02;;;;;;;7.60;0.93;;;23.40;99.90;;;;;;5058642;28;20696;-81
2023/03/26 06:38:34;;;;;;;3.75;0.65;;;23.40;99.90;;;;;;5057017;28;20268;-79
2023/03/26 06:41:06;;;;;;;5.35;0.90;;;23.40;99.90;;;;;;5058589;28;20652;-79
2023/03/26 06:43:37;;;;;;;4.68;0.80;;;23.40;99.90;;;;;;5066421;28;20200;-80
2023/03/26 06:46:11;;;;;;;6.43;0.90;;;23.40;99.90;;;;;;5071301;28;20215;-80
2023/03/26 06:48:42;;;;;;;5.88;1.15;;;23.30;99.90;;;;;;5069147;28;20212;-78
2023/03/26 06:51:14;;;;;;;6.90;0.90;;;23.20;99.90;;;;;;5060580;28;20656;-83
2023/03/26 06:53:45;;;;;;;5.95;1.25;;;23.20;99.90;;;;;;5067576;28;20204;-79
2023/03/26 06:56:16;;;;;;;3.10;0.73;;;23.10;99.90;;;;;;5066349;28;20529;-82
2023/03/26 06:58:47;;;;;;;3.15;0.70;;;23.00;99.90;;;;;;5056342;28;20220;-80
2023/03/26 07:01:20;;;;;;;5.20;0.75;;;23.00;99.90;;;;;;5057736;28;20197;-79
2023/03/26 07:03:51;;;;;;;6.55;0.93;;;23.00;99.90;;;;;;5056342;28;20679;-80
2023/03/26 07:06:22;;;;;;;3.83;0.90;;;23.00;99.90;;;;;;5053025;28;20571;-81
2023/03/26 07:08:54;;;;;;;4.05;1.08;;;23.00;99.90;;;;;;5061097;28;20197;-80
2023/03/26 07:11:25;;;;;;;3.70;0.85;;;23.00;99.90;;;;;;5061729;28;20666;-79
2023/03/26 07:13:58;;;;;;;4.82;0.90;;;23.00;99.90;;;;;;5068007;28;20634;-79
2023/03/26 07:16:31;;;;;;;3.63;0.82;;;23.00;99.90;;;;;;5063711;28;20243;-79
2023/03/26 07:19:02;;;;;;;3.47;0.80;;;23.00;99.90;;;;;;5059050;28;20675;-79
2023/03/26 07:21:33;;;;;;;6.55;1.02;;;23.10;99.90;;;;;;5061403;28;22649;-79
2023/03/26 07:24:05;;;;;;;7.63;0.90;;;23.10;99.90;;;;;;5062109;28;20237;-80
2023/03/26 07:26:40;;;;;;;6.60;0.90;;;23.00;99.90;;;;;;5064313;28;20201;-80
2023/03/26 07:29:19;;;;;;;1.13;0.60;;;23.00;99.90;;;;;;5064998;28;20192;-81
2023/03/26 07:31:59;;;;;;;3.47;0.80;;;23.00;99.90;;;;;;5059649;28;20593;-79
2023/03/26 07:34:43;;;;;;;5.13;0.93;;;22.90;99.90;;;;;;5055963;28;20232;-80
2023/03/26 07:37:26;;;;;;;4.75;0.80;;;22.90;99.90;;;;;;5062961;28;20189;-80
2023/03/26 07:40:02;;;;;;;4.95;0.80;;;22.80;99.90;;;;;;5058639;28;21000;-79
2023/03/26 07:42:57;;;;;;;4.30;0.93;;;22.80;99.90;;;;;;5065659;28;20676;-80
2023/03/26 07:45:35;;;;;;;2.95;0.70;;;22.80;99.90;;;;;;5070665;28;20196;-80
2023/03/26 07:48:15;;;;;;;6.78;1.00;;;22.70;99.90;;;;;;5063845;28;20216;-83
2023/03/26 07:50:47;;;;;;;5.07;1.20;;;22.70;99.90;;;;;;5064408;28;20194;-83
2023/03/26 07:53:18;;;;;;;6.03;1.13;;;22.70;99.90;;;;;;5055383;28;20201;-81
2023/03/26 07:55:54;;;;;;;3.15;0.95;;;22.60;99.90;;;;;;5061496;28;20224;-80
2023/03/26 07:58:45;;;;;;;5.82;1.10;;;22.60;99.90;;;;;;5086281;22;20201;-79
2023/03/26 08:01:22;;;;;;;5.50;0.93;;;22.60;99.90;;;;;;5046702;28;20236;-81
2023/03/26 08:04:39;;;;;;;4.32;0.70;;;22.60;99.90;;;;;;5053474;28;20193;-79
2023/03/26 08:07:17;;;;;;;3.22;0.73;;;22.60;99.90;;;;;;5020304;28;20201;-81
2023/03/26 08:10:01;;;;;;;3.22;0.88;;;22.60;99.90;;;;;;5050353;28;20193;-82
2023/03/26 08:12:39;;;;;;;7.97;1.10;;;22.50;99.90;;;;;;5054302;28;20193;-81
2023/03/26 08:15:17;;;;;;;4.53;1.05;;;22.50;99.90;;;;;;5054290;28;20691;-81
2023/03/26 08:17:54;;;;;;;4.00;0.88;;;22.50;99.90;;;;;;5049130;28;20667;-80
2023/03/26 08:20:40;;;;;;;2.67;0.85;;;22.50;99.90;;;;;;5048485;28;20918;-80
2023/03/26 08:23:20;;;;;;;1.90;0.70;;;22.50;99.90;;;;;;5052293;28;20602;-80
2023/03/26 08:26:02;;;;;;;3.95;1.20;;;22.40;99.90;;;;;;5055117;28;20193;-80
2023/03/26 08:28:51;;;;;;;4.68;1.30;;;22.40;99.90;;;;;;5055725;28;20202;-79
2023/03/26 08:31:35;;;;;;;7.55;1.40;;;22.40;99.90;;;;;;5054065;28;20201;-80
2023/03/26 08:34:06;;;;;;;6.38;1.27;;;22.40;99.90;;;;;;5053525;28;20658;-79
2023/03/26 08:36:41;;;;;;;5.00;1.33;;;22.40;99.90;;;;;;5053922;28;20703;-80
2023/03/26 08:39:13;;;;;;;5.95;0.93;;;22.40;99.90;;;;;;5051832;28;20193;-80
2023/03/26 08:42:30;;;;;;;6.30;1.27;;;22.40;99.90;;;;;;5054149;28;20202;-79
2023/03/26 08:45:32;;;;;;;5.22;1.00;;;22.40;99.90;;;;;;5054516;28;20201;-79
2023/03/26 08:48:34;;;;;;;5.47;1.15;;;22.40;99.90;;;;;;5050680;28;20207;-80
2023/03/26 08:51:33;;;;;;;6.18;0.95;;;22.40;99.90;;;;;;5050429;28;20197;-79
2023/03/26 08:54:47;;;;;;;10.43;1.50;;;22.40;99.90;;;;;;5055068;28;20562;-80
2023/03/26 08:57:55;;;;;;;7.28;1.10;;;22.40;99.90;;;;;;5053255;28;20193;-82
2023/03/26 09:00:41;;;;;;;9.35;1.08;;;22.40;99.90;;;;;;5041525;28;20339;-81
2023/03/26 09:03:37;;;;;;;4.97;1.10;;;22.40;99.90;;;;;;5052211;28;20267;-79
2023/03/26 09:06:49;;;;;;;6.05;0.90;;;22.40;99.90;;;;;;5052487;28;20201;-81
2023/03/26 09:09:52;;;;;;;4.13;0.82;;;22.40;99.90;;;;;;5040364;28;20201;-79
2023/03/26 09:13:01;;;;;;;7.53;0.90;;;22.40;99.90;;;;;;5053271;28;20201;-80
2023/03/26 09:15:55;;;;;;;6.30;1.33;;;22.40;99.90;;;;;;5052103;28;20217;-79
2023/03/26 09:18:57;;;;;;;6.20;0.90;;;22.40;99.90;;;;;;5054619;28;20212;-80
2023/03/26 09:22:03;;;;;;;8.45;1.40;;;22.40;99.90;;;;;;5040572;28;20211;-80
2023/03/26 09:25:06;;;;;;;5.18;0.80;;;22.30;99.90;;;;;;5052626;28;20193;-79
2023/03/26 09:27:56;;;;;;;6.18;0.90;;;22.30;99.90;;;;;;5052760;28;20310;-80
2023/03/26 09:31:06;;;;;;;6.72;0.88;;;22.30;99.90;;;;;;5048010;28;20217;-79
2023/03/26 09:34:30;;;;;;;3.15;0.88;;;22.30;99.90;;;;;;5049366;28;20211;-80
2023/03/26 09:37:15;;;;;;;6.95;1.20;;;22.20;99.90;;;;;;4977464;28;20694;-79
2023/03/26 09:39:57;;;;;;;6.07;0.90;;;22.20;99.90;;;;;;5049559;28;20193;-79
2023/03/26 09:42:39;;;;;;;5.55;1.00;;;22.20;99.90;;;;;;5052608;28;20206;-79
2023/03/26 09:45:41;;;;;;;6.90;0.88;;;22.20;99.90;;;;;;5052399;28;20259;-79
2023/03/26 09:48:32;;;;;;;5.00;1.20;;;22.20;99.90;;;;;;5049781;28;20197;-80
2023/03/26 09:51:28;;;;;;;4.18;0.90;;;22.20;99.90;;;;;;5052430;28;20202;-78
2023/03/26 09:54:32;;;;;;;6.95;1.17;;;22.10;99.90;;;;;;5052557;28;21921;-80
2023/03/26 09:57:09;;;;;;;6.78;0.98;;;22.10;99.90;;;;;;5048276;28;20236;-80
2023/03/26 09:59:56;;;;;;;4.93;1.05;;;22.10;99.90;;;;;;5052973;28;20252;-80
2023/03/26 10:02:48;;;;;;;7.00;1.02;;;22.10;99.90;;;;;;5047267;28;20216;-80
2023/03/26 10:05:41;;;;;;;5.53;0.95;;;22.10;99.90;;;;;;5050200;28;20209;-79
2023/03/26 10:08:38;;;;;;;6.07;0.95;;;22.10;99.90;;;;;;5050170;28;20644;-79
2023/03/26 10:11:19;;;;;;;6.70;1.20;;;22.10;99.90;;;;;;5052292;28;20659;-79
2023/03/26 10:14:06;;;;;;;7.50;1.27;;;22.10;99.90;;;;;;5052985;28;20567;-79
2023/03/26 10:16:54;;;;;;;6.70;1.27;;;22.10;99.90;;;;;;5052651;28;20262;-79
2023/03/26 10:19:48;;;;;;;6.07;1.15;;;22.10;99.90;;;;;;5052637;28;20193;-79
2023/03/26 10:22:42;;;;;;;6.63;1.10;;;22.10;99.90;;;;;;5044790;28;20644;-81
2023/03/26 10:25:37;;;;;;;5.90;0.98;;;22.10;99.90;;;;;;5049835;28;20209;-79
2023/03/26 10:28:21;;;;;;;5.97;1.40;;;22.00;99.90;;;;;;5051618;28;20263;-80
2023/03/26 10:31:23;;;;;;;5.50;0.90;;;22.00;99.90;;;;;;5053655;28;20186;-80
2023/03/26 10:34:06;;;;;;;4.15;0.98;;;22.00;99.90;;;;;;5024837;28;20644;-80
2023/03/26 10:36:40;;;;;;;9.43;1.10;;;22.00;99.90;;;;;;5049527;28;20686;-80
2023/03/26 10:39:34;;;;;;;5.90;1.00;;;22.00;99.90;;;;;;5052272;28;20656;-79
2023/03/26 10:42:27;;;;;;;5.82;1.10;;;21.90;99.90;;;;;;5048973;28;20209;-79
2023/03/26 10:45:20;;;;;;;5.40;1.17;;;21.90;99.90;;;;;;5012072;28;20587;-80
2023/03/26 10:48:16;;;;;;;5.00;0.90;;;21.90;99.90;;;;;;5052766;28;20196;-79
2023/03/26 10:51:18;;;;;;;7.50;1.10;;;21.90;99.90;;;;;;5021059;28;20220;-79
2023/03/26 10:53:56;;;;;;;6.95;1.05;;;21.80;99.90;;;;;;5049170;28;20201;-82
2023/03/26 10:56:33;;;;;;;3.25;0.80;;;21.80;99.90;;;;;;5049680;28;20218;-81
2023/03/26 10:59:07;;;;;;;9.05;1.20;;;21.80;99.90;;;;;;5051890;28;20247;-80
2023/03/26 11:01:45;;;;;;;6.78;1.08;;;21.80;99.90;;;;;;5046810;28;20205;-79
2023/03/26 11:04:29;;;;;;;6.15;1.00;;;21.80;99.90;;;;;;5051719;28;20197;-79
2023/03/26 11:07:11;;;;;;;7.10;0.90;;;21.70;99.90;;;;;;5052322;28;20622;-79
2023/03/26 11:09:48;;;;;;;4.43;0.98;;;21.70;99.90;;;;;;5048820;28;20664;-79
2023/03/26 11:12:31;;;;;;;4.35;0.90;;;21.70;99.90;;;;;;5049929;28;20193;-79
2023/03/26 11:15:16;;;;;;;8.38;0.98;;;21.70;99.90;;;;;;5053227;28;20190;-80
2023/03/26 11:17:58;;;;;;;6.13;0.98;;;21.70;99.90;;;;;;5046175;28;20198;-79
2023/03/26 11:20:37;;;;;;;6.50;1.77;;;21.70;99.90;;;;;;5042487;28;20562;-79
2023/03/26 11:23:34;;;;;;;6.28;1.05;;;21.70;99.90;;;;;;5051925;28;20204;-78
2023/03/26 11:26:11;;;;;;;6.97;1.27;;;21.70;99.90;;;;;;5051344;28;20205;-79
2023/03/26 11:28:56;;;;;;;8.07;1.10;;;21.70;99.90;;;;;;5053134;28;20200;-79
2023/03/26 11:31:36;;;;;;;7.07;1.00;;;21.70;99.90;;;;;;5043476;28;20698;-79
2023/03/26 11:34:12;;;;;;;7.25;0.90;;;21.80;99.90;;;;;;5049919;28;20200;-79
2023/03/26 11:36:47;;;;;;;7.82;1.05;;;21.80;99.90;;;;;;5052485;28;20213;-80
2023/03/26 11:39:25;;;;;;;8.35;1.10;;;21.80;99.90;;;;;;5050208;28;20185;-80
2023/03/26 11:42:13;;;;;;;8.75;0.95;;;21.80;99.90;;;;;;5033228;28;20213;-78
2023/03/26 11:44:49;;;;;;;4.47;1.00;;;21.80;99.90;;;;;;5034712;28;20202;-79
2023/03/26 11:47:25;;;;;;;7.93;1.10;;;21.80;99.90;;;;;;5053040;28;20193;-80
2023/03/26 11:49:57;;;;;;;7.70;1.00;;;21.80;99.90;;;;;;5053182;28;20201;-79
2023/03/26 11:52:29;;;;;;;4.78;0.82;;;21.80;99.90;;;;;;5052252;28;20197;-81
2023/03/26 11:55:00;;;;;;;6.57;1.20;;;21.80;99.90;;;;;;5052839;28;20194;-81
2023/03/26 11:57:36;;;;;;;9.25;1.00;;;21.80;99.90;;;;;;5052733;28;20680;-85
2023/03/26 12:00:15;;;;;;;11.65;1.40;;;21.80;99.90;;;;;;5052720;28;20229;-81
2023/03/26 12:02:48;;;;;;;9.98;1.20;;;21.80;99.90;;;;;;5053046;28;20190;-79
2023/03/26 12:05:21;;;;;;;7.30;1.17;;;21.80;99.90;;;;;;5052415;28;20201;-79
2023/03/26 12:08:00;;;;;;;5.85;0.90;;;21.80;99.90;;;;;;5052721;28;20212;-78
2023/03/26 12:10:36;;;;;;;5.03;0.70;;;21.80;99.90;;;;;;5052668;28;20200;-80
2023/03/26 12:13:30;;;;;;;3.90;0.80;;;21.80;99.90;;;;;;5052583;28;20232;-79
2023/03/26 12:16:08;;;;;;;6.85;1.00;;;21.80;99.90;;;;;;5046986;28;20220;-78
2023/03/26 12:18:42;;;;;;;7.93;1.02;;;21.80;99.90;;;;;;5056486;28;20186;-78
2023/03/26 12:21:14;;;;;;;9.68;1.70;;;21.90;99.90;;;;;;5054489;28;20202;-80
2023/03/26 12:23:58;;;;;;;6.20;0.90;;;21.80;99.90;;;;;;5052446;28;20566;-80
2023/03/26 12:26:38;;;;;;;7.47;0.95;;;21.80;99.90;;;;;;5055218;28;20193;-78
2023/03/26 12:29:13;;;;;;;5.63;0.90;;;21.80;99.90;;;;;;5055166;28;20296;-78
2023/03/26 12:31:57;;;;;;;4.45;1.02;;;21.80;99.90;;;;;;5054762;28;20197;-78
2023/03/26 12:34:38;;;;;;;7.07;0.82;;;21.80;99.90;;;;;;5051963;28;20197;-79
2023/03/26 12:37:11;;;;;;;6.53;1.33;;;21.80;99.90;;;;;;5054947;28;20304;-79
2023/03/26 12:39:43;;;;;;;3.38;0.73;;;21.80;99.90;;;;;;5055695;28;20194;-79
2023/03/26 12:42:29;;;;;;;4.35;0.90;;;21.80;99.90;;;;;;5055968;28;20190;-79
2023/03/26 12:45:01;;;;;;;5.45;0.90;;;21.80;99.90;;;;;;5056190;28;20539;-80
2023/03/26 12:47:35;;;;;;;8.02;1.10;;;21.80;99.90;;;;;;5054944;28;22342;-80
2023/03/26 12:50:08;;;;;;;7.75;0.98;;;21.80;99.90;;;;;;5055415;28;20189;-79
2023/03/26 12:53:06;;;;;;;9.10;1.33;;;21.80;99.90;;;;;;5053573;28;20653;-78
2023/03/26 12:55:43;;;;;;;7.13;1.10;;;21.80;99.90;;;;;;5054307;28;20679;-78
2023/03/26 12:58:32;;;;;;;5.30;0.90;;;21.70;99.90;;;;;;5054374;28;20208;-81
2023/03/26 13:01:14;;;;;;;7.40;0.85;;;21.70;99.90;;;;;;5054492;28;20233;-80
2023/03/26 13:04:14;;;;;;;4.28;1.00;;;21.80;99.90;;;;;;5055090;28;20193;-79
2023/03/26 13:06:49;;;;;;;8.10;1.10;;;21.70;99.90;;;;;;5055344;28;20223;-80
2023/03/26 13:09:37;;;;;;;8.63;1.13;;;21.70;99.90;;;;;;5055271;28;20196;-80
2023/03/26 13:12:18;;;;;;;9.73;1.20;;;21.70;99.90;;;;;;5055122;28;20186;-79
2023/03/26 13:15:06;;;;;;;5.72;1.10;;;21.70;99.90;;;;;;5054902;28;20205;-79
2023/03/26 13:17:42;;;;;;;5.38;0.98;;;21.70;99.90;;;;;;5055196;28;20220;-78
2023/03/26 13:20:25;;;;;;;4.57;0.85;;;21.70;99.90;;;;;;5055577;28;20196;-77
2023/03/26 13:23:04;;;;;;;5.72;1.00;;;21.70;99.90;;;;;;5054966;28;20629;-78
2023/03/26 13:25:42;;;;;;;8.25;0.95;;;21.70;99.90;;;;;;5054112;28;20581;-79
2023/03/26 13:28:23;;;;;;;4.90;1.02;;;21.70;99.90;;;;;;5052772;28;20212;-78
2023/03/26 13:31:06;;;;;;;4.95;0.80;;;21.70;99.90;;;;;;5053007;28;20200;-78
2023/03/26 13:34:00;;;;;;;9.18;1.13;;;21.70;99.90;;;;;;5046567;28;20189;-79
2023/03/26 13:36:45;;;;;;;4.28;0.73;;;21.70;99.90;;;;;;5053243;28;20224;-79
2023/03/26 13:39:33;;;;;;;3.15;0.80;;;21.70;99.90;;;;;;5053423;28;20558;-80
2023/03/26 13:42:17;;;;;;;7.75;1.17;;;21.70;99.90;;;;;;5054710;28;20208;-80
2023/03/26 13:45:03;;;;;;;8.45;0.90;;;21.70;99.90;;;;;;5052029;28;20201;-81